KCGI/CGI METAR and TAF weather

Enter ICAO airport designator
Station Type Date Time Source
KCGI METAR 2019/10/21 21:53 UTC NOAA

KCGI 212153Z AUTO 22019G25KT 10SM FEW041 20/14 A2968 RMK AO2 PK WND 23030/2137 SLP047 T02000139


Station Type Date Time Source
KCGI Decoded METAR 2019/10/21 21:53 UTC NOAA

CAPE GIRARDEAU REGIONAL, MO, United States (KCGI) 37-14N 089-35W 102M
Oct 21, 2019 - 05:53 PM EDT / 2019.10.21 2153 UTC
Wind: from the SW (220 degrees) at 22 MPH (19 KT) gusting to 29 MPH (25 KT):0
Visibility: 10 mile(s):0
Sky conditions: mostly clear
Temperature: 68.0 F (20.0 C)
Dew Point: 57.0 F (13.9 C)
Relative Humidity: 67%
Pressure (altimeter): 29.68 in. Hg (1005 hPa)
ob: KCGI 212153Z AUTO 22019G25KT 10SM FEW041 20/14 A2968 RMK AO2 PK WND 23030/2137 SLP047 T02000139
cycle: 22

Station Type Date Time Source
KCGI TAF 2019/10/21 18:30 UTC NOAA

TAF KCGI 211727Z 2118/2218 22014G22KT P6SM SCT014 BKN035
FM211900 22015G25KT P6SM SCT023 BKN060
FM212000 23015G27KT P6SM FEW040 SCT060
FM220200 25008KT P6SM SKC
FM221400 27012G21KT P6SM SKC

Example: see airport list